Terminal Aerodrome Forecast
Issued by NWS

Home | Current Version | Previous Version | Text Only | Print | Product List | Glossary On
Versions: 1 2 3 4 5 6 7 8 9 10 11 12 13
000
FTPQ31 PGUM 260930 AAA
TAFKMJ
TAF AMD
PKMJ 260930Z 2610/2706 VRB06KT P6SM VCTS SCT012CB BKN045 BKN120
      TEMPO 2610/2612 1SM +SHRA BKN012 OVC030
     FM261400 15007KT P6SM VCSH SCT012 SCT045 BKN120=

USA.gov is the U.S. government's official web portal to all federal, state and local government web resources and services.